M I D A S
Marine Information and Data Acquisition System
Tripno 1078 of the Zeeleeuw from 2006-04-28 07:14:02 to 2006-04-28 11:53:19
Back to CruiseResearch ActivitiesStationsMapUnderway DataData graphs

EquipmentUnitsComment
TimeDGPSUTC
LatitudeDGPSDM.mWGS84
LongitudeDGPSDM.mWGS84
HeadingGyrodeg 
SOGDGPSknotsSpeed over ground
COGDGPSdegCourse over ground
DepthEcho soundermeters200 kHz
Missing or incorrect values are displayed as -999
Navigation data collected by the RV Zeeleeuw from 2006-04-28 07:14:48 to 2006-04-28 12:05:21
                                                                                    Next 1000 lines
Time Latitude Longitude Heading SOG COG Depth
2006-04-28 07:14:58 51°13.603 2°56.096 116.1 0.9 291 -999
2006-04-28 07:15:03 51°13.604 2°56.093 115.5 1.3 288 -999
2006-04-28 07:15:08 51°13.604 2°56.089 115.4 1.8 292 -999
2006-04-28 07:15:13 51°13.605 2°56.084 115.4 2.1 290 -999
2006-04-28 07:15:18 51°13.607 2°56.079 116.1 2.6 291 -999
2006-04-28 07:15:23 51°13.608 2°56.073 116.8 2.8 293 -999
2006-04-28 07:15:28 51°13.61 2°56.067 117.4 3.1 294 -999
2006-04-28 07:15:33 51°13.612 2°56.06 117.8 3.2 295 -999
2006-04-28 07:15:38 51°13.614 2°56.053 118.1 3.5 295 -999
2006-04-28 07:15:42 51°13.616 2°56.047 118.5 3.7 297 -999
2006-04-28 07:15:48 51°13.619 2°56.038 118.9 3.9 296 -999
2006-04-28 07:15:53 51°13.622 2°56.03 118.4 3.9 296 -999
2006-04-28 07:15:58 51°13.624 2°56.023 117 3.8 294 -999
2006-04-28 07:16:02 51°13.625 2°56.016 115.4 3.8 292 -999
2006-04-28 07:16:08 51°13.628 2°56.007 113.6 4 290 -999
2006-04-28 07:16:13 51°13.629 2°55.998 112.3 4.2 288 -999
2006-04-28 07:16:18 51°13.631 2°55.988 111.7 4.4 287 -999
2006-04-28 07:16:23 51°13.633 2°55.978 111.6 4.6 287 -999
2006-04-28 07:16:28 51°13.635 2°55.969 111.8 4.4 286 -999
2006-04-28 07:16:33 51°13.637 2°55.96 112 4.3 287 -999
2006-04-28 07:16:38 51°13.639 2°55.951 112.6 4.2 287 -999
2006-04-28 07:16:43 51°13.642 2°55.943 113.5 4.1 287 -999
2006-04-28 07:16:48 51°13.642 2°55.935 114.7 4 288 -999
2006-04-28 07:16:53 51°13.644 2°55.926 116.1 4 290 -999
2006-04-28 07:16:58 51°13.645 2°55.918 117.8 3.9 291 -999
2006-04-28 07:17:03 51°13.647 2°55.91 119.4 3.9 293 -999
2006-04-28 07:17:08 51°13.65 2°55.902 120.7 3.9 293 -999
2006-04-28 07:17:13 51°13.652 2°55.894 121.8 3.9 295 -999
2006-04-28 07:17:18 51°13.654 2°55.887 122.9 3.9 296 -999
2006-04-28 07:17:23 51°13.657 2°55.879 124.1 3.8 297 -999
2006-04-28 07:17:28 51°13.659 2°55.872 125.5 3.8 299 -999
2006-04-28 07:17:33 51°13.662 2°55.865 126.8 3.8 301 -999
2006-04-28 07:17:38 51°13.665 2°55.857 127.8 3.9 302 -999
2006-04-28 07:17:42 51°13.667 2°55.852 128.5 3.9 303 -999
2006-04-28 07:17:48 51°13.671 2°55.843 128.9 4.1 304 -999
2006-04-28 07:17:53 51°13.674 2°55.835 129.3 4.2 304 -999
2006-04-28 07:17:58 51°13.678 2°55.827 129.8 4.3 305 -999
2006-04-28 07:18:02 51°13.681 2°55.821 130.2 4.4 306 -999
2006-04-28 07:18:08 51°13.685 2°55.811 130.5 4.6 306 -999
2006-04-28 07:18:13 51°13.689 2°55.803 130.6 4.4 306 -999
2006-04-28 07:18:18 51°13.692 2°55.796 130.6 4.1 305 -999
2006-04-28 07:18:22 51°13.694 2°55.79 129.9 3.8 305 -999
2006-04-28 07:18:28 51°13.698 2°55.782 129.2 3.7 303 -999
2006-04-28 07:18:33 51°13.7 2°55.776 128.4 3.5 303 -999
2006-04-28 07:18:38 51°13.703 2°55.769 127.6 3.4 301 4.8
2006-04-28 07:18:42 51°13.704 2°55.764 126.2 3.3 301 8.5
2006-04-28 07:18:45 51°13.706 2°55.761 125.1 3.1 299 4.9
2006-04-28 07:18:52 51°13.709 2°55.752 123.7 3.1 298 4.7
2006-04-28 07:18:57 51°13.711 2°55.747 122.1 2.9 296 8.8
2006-04-28 07:19:01 51°13.712 2°55.743 120.6 2.8 295 8.9
2006-04-28 07:19:06 51°13.713 2°55.738 119 2.3 293 -999
2006-04-28 07:19:12 51°13.714 2°55.733 116.8 1.7 293 9
2006-04-28 07:19:18 51°13.715 2°55.732 114.2 0.8 298 -999
2006-04-28 07:19:22 51°13.715 2°55.732 109.7 0.2 359 4.8
2006-04-28 07:19:28 51°13.715 2°55.735 103.9 1 83 -999
2006-04-28 07:19:33 51°13.717 2°55.739 96.5 1.4 85 -999
2006-04-28 07:19:38 51°13.718 2°55.743 87.2 1.8 76 -999
2006-04-28 07:19:42 51°13.72 2°55.747 82 2 73 4.8
2006-04-28 07:19:48 51°13.72 2°55.752 76 2 72 -999
2006-04-28 07:19:53 51°13.72 2°55.755 71.4 1.8 65 4.7
2006-04-28 07:19:57 51°13.721 2°55.757 67.7 1.6 64 -999
2006-04-28 07:20:02 51°13.721 2°55.759 64.9 1.1 64 -999
2006-04-28 07:20:08 51°13.722 2°55.76 62 0.4 62 -999
2006-04-28 07:20:13 51°13.722 2°55.759 59.2 0.2 203 -999
2006-04-28 07:20:18 51°13.721 2°55.758 57.3 0.7 223 -999
2006-04-28 07:20:23 51°13.719 2°55.756 56.1 1.2 227 -999
2006-04-28 07:20:28 51°13.718 2°55.753 55.4 1.6 229 -999
2006-04-28 07:20:33 51°13.717 2°55.752 54.8 1.8 228 -999
2006-04-28 07:20:38 51°13.716 2°55.749 54.1 1.7 229 -999
2006-04-28 07:20:42 51°13.714 2°55.746 53.7 1.6 227 -999
2006-04-28 07:20:48 51°13.712 2°55.743 53.3 1.5 229 -999
2006-04-28 07:20:53 51°13.71 2°55.741 53.2 1.3 228 -999
2006-04-28 07:20:58 51°13.709 2°55.739 52 0.9 229 -999
2006-04-28 07:21:03 51°13.708 2°55.738 50.3 0.6 229 -999
2006-04-28 07:21:08 51°13.708 2°55.737 47.8 0.2 253 -999
2006-04-28 07:21:13 51°13.709 2°55.737 43.9 0.3 21 -999
2006-04-28 07:21:18 51°13.711 2°55.738 39.6 0.8 20 -999
2006-04-28 07:21:22 51°13.712 2°55.738 34.2 1.2 21 -999
2006-04-28 07:21:28 51°13.715 2°55.74 27.7 1.8 11 -999
2006-04-28 07:21:33 51°13.718 2°55.741 20.1 2.2 7 -999
2006-04-28 07:21:38 51°13.721 2°55.74 11.6 2.8 356 -999
2006-04-28 07:21:42 51°13.725 2°55.739 2.9 3.2 349 -999
2006-04-28 07:21:47 51°13.729 2°55.736 355.9 3.6 341 4.7
2006-04-28 07:21:53 51°13.736 2°55.731 346.9 4.1 334 -999
2006-04-28 07:21:58 51°13.741 2°55.725 338.5 4.6 328 -999
2006-04-28 07:22:02 51°13.746 2°55.72 333 5.1 326 -999
2006-04-28 07:22:08 51°13.755 2°55.712 332.5 5.6 328 8.1
2006-04-28 07:22:12 51°13.761 2°55.705 332.5 6 327 7.7
2006-04-28 07:22:16 51°13.767 2°55.699 332.9 6.9 329 7.8
2006-04-28 07:22:22 51°13.777 2°55.688 333.3 7.1 328 7.4
2006-04-28 07:22:27 51°13.786 2°55.679 333.1 7.8 329 -999
2006-04-28 07:22:33 51°13.799 2°55.669 333.2 8.2 329 8.1
2006-04-28 07:22:38 51°13.81 2°55.661 333.9 8.4 330 8.1
2006-04-28 07:22:42 51°13.818 2°55.653 334.7 8.7 331 -999
2006-04-28 07:22:48 51°13.83 2°55.64 335.9 9 332 -999
2006-04-28 07:22:53 51°13.841 2°55.63 337 9.2 332 8.1
2006-04-28 07:22:57 51°13.851 2°55.623 337.8 9.3 333 8.1
2006-04-28 07:23:02 51°13.86 2°55.611 337.8 9.4 332 8.2
2006-04-28 07:23:07 51°13.874 2°55.603 338.5 9.6 334 8.2
2006-04-28 07:23:12 51°13.886 2°55.594 338.9 9.7 332 -999
2006-04-28 07:23:18 51°13.901 2°55.583 339.4 9.8 334 -999
2006-04-28 07:23:22 51°13.911 2°55.575 340.3 9.9 334 -999
2006-04-28 07:23:26 51°13.92 2°55.567 340.5 9.9 335 8.2
2006-04-28 07:23:33 51°13.938 2°55.554 340.9 10 335 -999
2006-04-28 07:23:37 51°13.948 2°55.547 341.7 10 337 8.1
2006-04-28 07:23:42 51°13.961 2°55.538 342.3 10 337 8.2
2006-04-28 07:23:48 51°13.976 2°55.527 341.4 10 335 -999
2006-04-28 07:23:52 51°13.985 2°55.519 341.1 10 336 8.2
2006-04-28 07:23:58 51°14 2°55.509 341.7 9.8 336 -999
2006-04-28 07:24:02 51°14.01 2°55.502 341.7 9.6 336 -999
2006-04-28 07:24:08 51°14.024 2°55.492 341.8 9.3 337 -999
2006-04-28 07:24:13 51°14.035 2°55.483 341.9 9.2 336 -999
2006-04-28 07:24:18 51°14.047 2°55.474 341.9 9.2 336 -999
2006-04-28 07:24:22 51°14.057 2°55.469 341.7 9.2 335 8.3
2006-04-28 07:24:26 51°14.067 2°55.463 340.4 9.2 334 8.3
2006-04-28 07:24:31 51°14.079 2°55.454 340.5 9.2 335 8.4
2006-04-28 07:24:38 51°14.095 2°55.442 341.6 9.4 336 -999
2006-04-28 07:24:42 51°14.105 2°55.435 341.3 9.4 335 -999
2006-04-28 07:24:48 51°14.119 2°55.425 341.1 9.5 336 -999
2006-04-28 07:24:52 51°14.129 2°55.417 341.1 9.7 334 -999
2006-04-28 07:24:58 51°14.144 2°55.405 340.4 9.8 334 -999
2006-04-28 07:25:02 51°14.153 2°55.397 338.8 10.1 331 8.3
2006-04-28 07:25:08 51°14.168 2°55.383 337.9 10.2 332 -999
2006-04-28 07:25:12 51°14.177 2°55.373 336.4 10.3 328 8.3
2006-04-28 07:25:17 51°14.189 2°55.36 334.2 10.4 326 -999
2006-04-28 07:25:22 51°14.201 2°55.347 330.9 10.5 323 -999
2006-04-28 07:25:28 51°14.215 2°55.328 328.6 10.7 321 -999
2006-04-28 07:25:33 51°14.226 2°55.312 325.1 10.9 317 -999
2006-04-28 07:25:38 51°14.238 2°55.295 322.5 11 315 -999
2006-04-28 07:25:43 51°14.248 2°55.276 321.1 11.2 315 -999
2006-04-28 07:25:48 51°14.258 2°55.258 319.1 11.3 312 -999
2006-04-28 07:25:53 51°14.269 2°55.239 318.2 11.4 312 -999
2006-04-28 07:25:58 51°14.279 2°55.22 317.5 11.4 311 -999
2006-04-28 07:26:02 51°14.287 2°55.204 315.8 11.4 309 -999
2006-04-28 07:26:08 51°14.299 2°55.18 315.6 11.4 310 -999
2006-04-28 07:26:13 51°14.308 2°55.16 314.6 11.4 307 -999
2006-04-28 07:26:18 51°14.318 2°55.14 313.7 11.4 308 8.4
2006-04-28 07:26:23 51°14.328 2°55.119 312.6 11.4 305 -999
2006-04-28 07:26:26 51°14.333 2°55.108 312.2 11.4 306 8.3
2006-04-28 07:26:30 51°14.341 2°55.092 311.6 11.4 305 8.2
2006-04-28 07:26:37 51°14.354 2°55.062 310.6 11.4 304 8.2
2006-04-28 07:26:42 51°14.361 2°55.041 310.1 11.3 302 8
2006-04-28 07:26:47 51°14.368 2°55.019 308.4 11.3 298 7.8
2006-04-28 07:26:52 51°14.374 2°54.995 304.6 11.3 295 7.6
2006-04-28 07:26:57 51°14.379 2°54.97 300.1 11.7 287 7.6
2006-04-28 07:27:01 51°14.382 2°54.949 295.7 12 284 7.6
2006-04-28 07:27:05 51°14.385 2°54.928 292.5 12.2 283 7.8
2006-04-28 07:27:12 51°14.389 2°54.89 291.7 12.5 282 7.9
2006-04-28 07:27:17 51°14.392 2°54.863 289.7 12.6 279 7.7
2006-04-28 07:27:22 51°14.395 2°54.834 288.2 12.9 278 7.9
2006-04-28 07:27:25 51°14.396 2°54.817 287.1 13.1 278 8.1
2006-04-28 07:27:32 51°14.399 2°54.777 286 13.1 277 8.2
2006-04-28 07:27:37 51°14.402 2°54.748 286.1 13.2 279 8
2006-04-28 07:27:41 51°14.405 2°54.725 287.2 13.3 279 8.2
2006-04-28 07:27:46 51°14.408 2°54.696 287.8 13.4 281 8.3
2006-04-28 07:27:52 51°14.412 2°54.661 288.9 13.4 281 8.1
2006-04-28 07:27:56 51°14.416 2°54.638 290.7 13.4 283 8.3
2006-04-28 07:28:02 51°14.42 2°54.603 291.7 13.4 282 8.3
2006-04-28 07:28:05 51°14.421 2°54.585 291.4 13.4 277 8.2
2006-04-28 07:28:11 51°14.423 2°54.549 287.3 13.5 273 8.2
2006-04-28 07:28:18 51°14.421 2°54.507 281.2 13.6 265 8
2006-04-28 07:28:22 51°14.418 2°54.484 274.7 13.6 262 8
2006-04-28 07:28:26 51°14.415 2°54.46 269 13.6 257 7.9
2006-04-28 07:28:32 51°14.409 2°54.426 264.4 13.6 255 7.7
2006-04-28 07:28:38 51°14.402 2°54.392 260.9 13.5 252 7.7
2006-04-28 07:28:42 51°14.396 2°54.369 258.8 13.5 250 7.5
2006-04-28 07:28:45 51°14.391 2°54.353 255.9 13.5 245 7.5
2006-04-28 07:28:52 51°14.378 2°54.317 251 13.6 240 7.4
2006-04-28 07:28:56 51°14.37 2°54.297 245.6 13.7 237 7.4
2006-04-28 07:29:01 51°14.359 2°54.272 242.1 13.7 235 7.4
2006-04-28 07:29:07 51°14.345 2°54.242 239.5 13.7 235 7.3
2006-04-28 07:29:12 51°14.334 2°54.218 238.8 13.7 234 5.5
2006-04-28 07:29:17 51°14.323 2°54.193 239.3 13.8 235 7.3
2006-04-28 07:29:21 51°14.315 2°54.173 239.3 13.9 236 7.2
2006-04-28 07:29:25 51°14.306 2°54.152 240.3 13.9 238 7.3
2006-04-28 07:29:31 51°14.296 2°54.119 243.1 13.8 243 7.2
2006-04-28 07:29:38 51°14.284 2°54.081 247.8 13.7 244 7.2
2006-04-28 07:29:42 51°14.278 2°54.059 250.1 13.8 245 5.4
2006-04-28 07:29:48 51°14.269 2°54.025 251.2 13.8 246 7.2
2006-04-28 07:29:52 51°14.263 2°54.003 251.8 13.8 246 7.2
2006-04-28 07:29:57 51°14.255 2°53.975 253.4 13.7 247 7.2
2006-04-28 07:30:02 51°14.247 2°53.948 253.9 13.7 247 7.2
2006-04-28 07:30:06 51°14.241 2°53.926 252.2 13.8 243 5.4
2006-04-28 07:30:12 51°14.23 2°53.893 249.8 13.9 241 7.2
2006-04-28 07:30:17 51°14.22 2°53.866 247.6 14 241 7.2
2006-04-28 07:30:22 51°14.211 2°53.839 246.7 14 241 7.2
2006-04-28 07:30:26 51°14.203 2°53.817 246.8 14 242 7.2
2006-04-28 07:30:32 51°14.193 2°53.784 247.5 14 243 7.3
2006-04-28 07:30:37 51°14.184 2°53.757 248.8 14 244 5.4
2006-04-28 07:30:41 51°14.178 2°53.735 250.1 14 245 5.4
2006-04-28 07:30:47 51°14.169 2°53.7 251.7 14 247 7.3
2006-04-28 07:30:51 51°14.163 2°53.677 252.9 14 247 7.3
2006-04-28 07:30:58 51°14.152 2°53.638 253.6 14 247 7.3
2006-04-28 07:31:02 51°14.146 2°53.615 253.9 14.1 247 7.3
2006-04-28 07:31:08 51°14.137 2°53.581 253.9 14.1 246 7.4
2006-04-28 07:31:12 51°14.131 2°53.558 253.7 14.1 246 7.4
2006-04-28 07:31:16 51°14.124 2°53.535 253.3 14.1 245 5.5
2006-04-28 07:31:22 51°14.115 2°53.501 252.6 14.2 245 5.5
2006-04-28 07:31:25 51°14.109 2°53.484 251.4 14.2 244 -999
2006-04-28 07:31:32 51°14.097 2°53.445 250.7 14.3 243 -999
2006-04-28 07:31:37 51°14.088 2°53.417 249.6 14.3 243 5.6
2006-04-28 07:31:41 51°14.08 2°53.395 248.4 14.3 241 7.5
2006-04-28 07:31:45 51°14.072 2°53.373 247.6 14.3 240 7.6
2006-04-28 07:31:52 51°14.059 2°53.334 246.7 14.3 240 7.5
2006-04-28 07:31:57 51°14.049 2°53.307 246.3 14.3 240 7.6
2006-04-28 07:32:01 51°14.042 2°53.284 246.5 14.3 242 7.6
2006-04-28 07:32:05 51°14.034 2°53.262 247.3 14.4 242 7.7
2006-04-28 07:32:11 51°14.023 2°53.228 248.2 14.3 243 7.7
2006-04-28 07:32:17 51°14.013 2°53.194 249.2 14.4 243 7.7
2006-04-28 07:32:22 51°14.004 2°53.165 249.9 14.4 244 7.8
2006-04-28 07:32:25 51°13.999 2°53.148 251.1 14.4 244 7.8
2006-04-28 07:32:32 51°13.987 2°53.108 251.1 14.4 245 7.9
2006-04-28 07:32:38 51°13.977 2°53.073 251.3 14.5 244 7.9
2006-04-28 07:32:42 51°13.97 2°53.05 251 14.5 244 7.9
2006-04-28 07:32:46 51°13.962 2°53.028 250.4 14.5 243 7.9
2006-04-28 07:32:52 51°13.951 2°52.993 249.1 14.5 243 8.1
2006-04-28 07:32:57 51°13.941 2°52.965 248.7 14.6 241 8
2006-04-28 07:33:01 51°13.933 2°52.943 247.5 14.7 241 8
2006-04-28 07:33:07 51°13.921 2°52.909 246.3 14.6 239 8
2006-04-28 07:33:11 51°13.913 2°52.887 244.9 14.6 239 8.1
2006-04-28 07:33:17 51°13.9 2°52.853 245 14.7 239 8.1
2006-04-28 07:33:22 51°13.89 2°52.825 245.1 14.7 239 8.1
2006-04-28 07:33:27 51°13.88 2°52.797 245.4 14.7 241 8.1
2006-04-28 07:33:31 51°13.872 2°52.774 246.8 14.7 241 8.1
2006-04-28 07:33:38 51°13.859 2°52.734 247.3 14.7 242 8.1
2006-04-28 07:33:42 51°13.852 2°52.711 248 14.7 242 8.2
2006-04-28 07:33:47 51°13.842 2°52.682 248.5 14.7 243 8.2
2006-04-28 07:33:52 51°13.833 2°52.653 249.5 14.7 243 8.2
2006-04-28 07:33:57 51°13.823 2°52.625 248.4 14.7 241 8.2
2006-04-28 07:34:01 51°13.815 2°52.602 247.1 14.7 241 8.2
2006-04-28 07:34:07 51°13.802 2°52.569 246.2 14.7 238 8.2
2006-04-28 07:34:12 51°13.79 2°52.543 243.8 14.7 236 8.3
2006-04-28 07:34:17 51°13.778 2°52.517 240.8 14.7 232 8.3
2006-04-28 07:34:21 51°13.768 2°52.496 238 14.8 233 8.3
2006-04-28 07:34:28 51°13.75 2°52.461 236.9 14.8 231 8.2
2006-04-28 07:34:32 51°13.74 2°52.44 236.1 14.8 232 8.4
2006-04-28 07:34:37 51°13.726 2°52.416 235.7 14.7 229 8.3
2006-04-28 07:34:42 51°13.713 2°52.391 234.7 14.7 230 8.2
2006-04-28 07:34:45 51°13.705 2°52.376 234.2 14.8 230 8.3
2006-04-28 07:34:51 51°13.69 2°52.345 234.6 14.7 231 8.2
2006-04-28 07:34:57 51°13.675 2°52.314 235.6 14.7 233 8.2
2006-04-28 07:35:02 51°13.664 2°52.287 237.8 14.8 235 8.2
2006-04-28 07:35:07 51°13.653 2°52.259 241.1 14.8 237 8.2
2006-04-28 07:35:12 51°13.643 2°52.231 244.3 14.7 240 8.3
2006-04-28 07:35:18 51°13.631 2°52.197 245.4 14.8 241 8.3
2006-04-28 07:35:22 51°13.623 2°52.174 247.3 14.8 242 8.4
2006-04-28 07:35:27 51°13.614 2°52.144 248.7 14.7 243 8.3
2006-04-28 07:35:32 51°13.605 2°52.116 249.3 14.7 243 8.4
2006-04-28 07:35:37 51°13.595 2°52.086 249.7 14.8 243 8.4
2006-04-28 07:35:41 51°13.588 2°52.063 249.7 14.8 243 8.4
2006-04-28 07:35:47 51°13.577 2°52.028 249.4 14.7 243 8.4
2006-04-28 07:35:49 51°13.573 2°52.016 249.5 14.7 243 8.4
2006-04-28 07:35:57 51°13.558 2°51.97 248.7 14.8 242 8.4
2006-04-28 07:36:01 51°13.55 2°51.947 248.2 14.8 242 8.3
2006-04-28 07:36:06 51°13.54 2°51.918 247.9 14.8 241 8.4
2006-04-28 07:36:11 51°13.53 2°51.89 247.2 14.8 241 8.4
2006-04-28 07:36:17 51°13.518 2°51.856 246.3 14.8 240 8.4
2006-04-28 07:36:22 51°13.508 2°51.827 246.2 14.8 241 8.4
2006-04-28 07:36:27 51°13.498 2°51.798 246.9 14.9 242 8.4
2006-04-28 07:36:32 51°13.488 2°51.769 247.8 14.9 242 8.5
2006-04-28 07:36:37 51°13.479 2°51.739 248.6 14.9 243 8.5
2006-04-28 07:36:41 51°13.472 2°51.716 249.2 14.8 243 8.5
2006-04-28 07:36:47 51°13.46 2°51.679 249.6 14.8 243 8.5
2006-04-28 07:36:52 51°13.451 2°51.651 249.9 14.9 243 8.5
2006-04-28 07:36:57 51°13.442 2°51.621 250 14.9 244 8.5
2006-04-28 07:37:02 51°13.433 2°51.592 250.3 14.9 243 8.6
2006-04-28 07:37:07 51°13.424 2°51.562 250 14.8 244 8.6
2006-04-28 07:37:12 51°13.415 2°51.533 250 14.9 243 8.6
2006-04-28 07:37:17 51°13.405 2°51.503 249.8 14.9 244 8.6
2006-04-28 07:37:22 51°13.396 2°51.474 249.6 14.9 243 8.6
2006-04-28 07:37:27 51°13.387 2°51.445 249.5 14.8 243 8.6
2006-04-28 07:37:32 51°13.377 2°51.415 248.9 14.8 243 8.6
2006-04-28 07:37:37 51°13.367 2°51.387 248.9 14.9 242 8.6
2006-04-28 07:37:42 51°13.358 2°51.357 248.3 14.9 243 8.7
2006-04-28 07:37:47 51°13.349 2°51.328 248.9 15 243 8.6
2006-04-28 07:37:52 51°13.339 2°51.298 248.9 14.9 243 8.6
2006-04-28 07:37:57 51°13.329 2°51.269 249 14.9 242 8.7
2006-04-28 07:38:02 51°13.32 2°51.24 248.3 14.9 242 8.8
2006-04-28 07:38:06 51°13.312 2°51.217 248.2 14.9 242 8.7
2006-04-28 07:38:12 51°13.3 2°51.182 248.2 15 242 8.8
2006-04-28 07:38:17 51°13.291 2°51.153 248 14.9 243 8.8
2006-04-28 07:38:22 51°13.281 2°51.123 248.2 15 243 8.8
2006-04-28 07:38:26 51°13.274 2°51.1 248.6 15 243 8.8
2006-04-28 07:38:32 51°13.262 2°51.065 248.6 14.9 242 8.8
2006-04-28 07:38:37 51°13.252 2°51.036 248.4 14.9 242 8.8
2006-04-28 07:38:41 51°13.244 2°51.013 247.5 14.9 241 8.8
2006-04-28 07:38:47 51°13.231 2°50.979 246.4 15 239 8.8
2006-04-28 07:38:52 51°13.22 2°50.951 244.8 14.9 239 8.9
2006-04-28 07:38:56 51°13.211 2°50.929 243.3 14.9 237 8.9
2006-04-28 07:39:02 51°13.197 2°50.896 242.4 15 236 8.9
2006-04-28 07:39:07 51°13.186 2°50.868 241.2 15 236 8.9
2006-04-28 07:39:12 51°13.174 2°50.841 240.7 14.9 236 8.9
2006-04-28 07:39:17 51°13.163 2°50.813 241.3 14.9 237 8.9
2006-04-28 07:39:22 51°13.152 2°50.785 242 14.9 238 8.9
2006-04-28 07:39:27 51°13.142 2°50.756 243.1 14.9 238 8.9
2006-04-28 07:39:32 51°13.131 2°50.728 245 14.9 241 9
2006-04-28 07:39:37 51°13.122 2°50.699 245.8 14.9 241 9
2006-04-28 07:39:42 51°13.112 2°50.67 247 14.9 242 9
2006-04-28 07:39:47 51°13.102 2°50.641 247.4 14.9 241 9.1
2006-04-28 07:39:52 51°13.092 2°50.613 247.5 14.9 241 9.1
2006-04-28 07:39:57 51°13.083 2°50.583 247.5 14.9 242 9.1
2006-04-28 07:40:02 51°13.073 2°50.554 247.5 14.9 241 9.2
2006-04-28 07:40:07 51°13.063 2°50.525 247.4 14.9 242 9.1
2006-04-28 07:40:12 51°13.053 2°50.497 247.4 14.9 241 9.2
2006-04-28 07:40:17 51°13.043 2°50.469 246.7 14.9 241 9.2
2006-04-28 07:40:22 51°13.033 2°50.44 246 14.9 240 9.2
2006-04-28 07:40:27 51°13.023 2°50.411 246 14.8 241 9.1
2006-04-28 07:40:32 51°13.013 2°50.382 246.4 14.9 241 9.2
2006-04-28 07:40:37 51°13.003 2°50.353 246.7 14.9 241 9.2
2006-04-28 07:40:42 51°12.993 2°50.324 247.4 14.9 243 9.2
2006-04-28 07:40:47 51°12.984 2°50.294 247.9 14.9 242 9.3
2006-04-28 07:40:52 51°12.974 2°50.266 248.5 14.8 242 9.2
2006-04-28 07:40:57 51°12.965 2°50.237 248.4 14.8 242 9.3
2006-04-28 07:41:02 51°12.955 2°50.208 247.9 14.9 241 9.3
2006-04-28 07:41:07 51°12.945 2°50.179 246.8 14.8 241 9.3
2006-04-28 07:41:12 51°12.935 2°50.151 246.1 14.8 239 9.3
2006-04-28 07:41:17 51°12.924 2°50.123 245.1 14.8 240 9.3
2006-04-28 07:41:22 51°12.913 2°50.096 244.3 14.7 238 9.3
2006-04-28 07:41:27 51°12.902 2°50.068 243.1 14.7 238 9.3
2006-04-28 07:41:32 51°12.891 2°50.042 241.9 14.7 237 9.3
2006-04-28 07:41:37 51°12.88 2°50.014 241.7 14.8 237 9.4
2006-04-28 07:41:42 51°12.869 2°49.986 241.8 14.7 238 9.4
2006-04-28 07:41:47 51°12.859 2°49.958 242.3 14.7 238 9.3
2006-04-28 07:41:52 51°12.848 2°49.93 243.7 14.7 240 9.4
2006-04-28 07:41:57 51°12.839 2°49.902 244.7 14.7 241 9.4
2006-04-28 07:42:02 51°12.829 2°49.873 246.2 14.7 242 9.5
2006-04-28 07:42:07 51°12.82 2°49.844 246.9 14.7 242 9.5
2006-04-28 07:42:12 51°12.81 2°49.816 247.2 14.7 242 9.5
2006-04-28 07:42:17 51°12.8 2°49.787 247.3 14.8 241 9.5
2006-04-28 07:42:22 51°12.79 2°49.759 246.4 14.8 241 9.5
2006-04-28 07:42:27 51°12.779 2°49.73 245.3 14.8 239 9.6
2006-04-28 07:42:32 51°12.769 2°49.703 244.2 14.8 239 9.6
2006-04-28 07:42:37 51°12.758 2°49.675 243.5 14.8 238 9.5
2006-04-28 07:42:42 51°12.747 2°49.648 243 14.8 238 9.6
2006-04-28 07:42:47 51°12.735 2°49.62 242.3 14.9 237 9.6
2006-04-28 07:42:52 51°12.724 2°49.592 241.6 14.8 237 9.6
2006-04-28 07:42:57 51°12.714 2°49.565 241.8 14.8 238 9.5
2006-04-28 07:43:02 51°12.703 2°49.536 242.6 14.8 239 9.5
2006-04-28 07:43:07 51°12.693 2°49.508 244.1 14.8 240 9.5
2006-04-28 07:43:12 51°12.684 2°49.479 245.8 14.8 242 9.6
2006-04-28 07:43:17 51°12.674 2°49.451 246.7 14.8 242 9.6
2006-04-28 07:43:22 51°12.664 2°49.422 247.3 14.7 243 9.6
2006-04-28 07:43:27 51°12.655 2°49.393 248 14.7 242 9.6
2006-04-28 07:43:32 51°12.645 2°49.364 247.8 14.8 242 9.6
2006-04-28 07:43:37 51°12.635 2°49.336 247.6 14.8 242 9.7
2006-04-28 07:43:42 51°12.626 2°49.307 247 14.8 242 9.7
2006-04-28 07:43:47 51°12.615 2°49.278 246.6 14.8 241 9.7
2006-04-28 07:43:52 51°12.606 2°49.25 246.1 14.9 242 9.7
2006-04-28 07:43:57 51°12.595 2°49.221 246.3 14.9 240 9.7
2006-04-28 07:44:02 51°12.585 2°49.193 246 14.8 241 9.8
2006-04-28 07:44:07 51°12.575 2°49.164 245.6 14.9 240 9.8
2006-04-28 07:44:12 51°12.565 2°49.135 245.8 14.9 241 9.8
2006-04-28 07:44:17 51°12.555 2°49.106 246.4 14.9 240 9.8
2006-04-28 07:44:22 51°12.545 2°49.077 246.3 15 241 9.8
2006-04-28 07:44:27 51°12.534 2°49.048 246.5 15 241 9.8
2006-04-28 07:44:32 51°12.525 2°49.019 246.6 15 242 9.8
2006-04-28 07:44:37 51°12.515 2°48.989 247 15 242 9.8
2006-04-28 07:44:42 51°12.505 2°48.96 247.3 15.1 242 9.8
2006-04-28 07:44:47 51°12.495 2°48.93 247.5 15.1 242 9.8
2006-04-28 07:44:52 51°12.486 2°48.9 247.2 15.1 242 9.8
2006-04-28 07:44:57 51°12.476 2°48.871 247.1 15.1 242 9.8
2006-04-28 07:45:02 51°12.465 2°48.842 247.2 15.1 241 9.8
2006-04-28 07:45:06 51°12.458 2°48.819 247 15.2 242 9.7
2006-04-28 07:45:12 51°12.446 2°48.783 247.2 15.2 242 9.7
2006-04-28 07:45:17 51°12.436 2°48.753 247.3 15.2 242 9.9
2006-04-28 07:45:22 51°12.426 2°48.723 247 15.2 242 9.9
2006-04-28 07:45:26 51°12.418 2°48.7 247.5 15.2 243 9.9
2006-04-28 07:45:32 51°12.406 2°48.664 247.3 15.3 242 9.9
2006-04-28 07:45:37 51°12.396 2°48.634 247.5 15.3 241 9.9
2006-04-28 07:45:42 51°12.386 2°48.605 246.7 15.3 241 9.9
2006-04-28 07:45:47 51°12.375 2°48.575 246.5 15.3 241 10
2006-04-28 07:45:52 51°12.365 2°48.546 246.4 15.3 241 10
2006-04-28 07:45:56 51°12.356 2°48.522 246 15.3 241 10
2006-04-28 07:46:02 51°12.344 2°48.487 245.9 15.3 241 9.9
2006-04-28 07:46:07 51°12.333 2°48.457 245.5 15.3 240 10
2006-04-28 07:46:12 51°12.323 2°48.428 245.4 15.3 240 10
2006-04-28 07:46:16 51°12.314 2°48.404 245.2 15.3 241 10
2006-04-28 07:46:22 51°12.302 2°48.369 245.6 15.3 241 10
2006-04-28 07:46:26 51°12.294 2°48.345 246.2 15.3 243 10
2006-04-28 07:46:32 51°12.282 2°48.309 247.8 15.2 243 10
2006-04-28 07:46:36 51°12.274 2°48.285 248 15.2 242 10
2006-04-28 07:46:42 51°12.262 2°48.25 247.6 15.1 242 9.9
2006-04-28 07:46:46 51°12.255 2°48.227 247 15.2 241 10
2006-04-28 07:46:51 51°12.245 2°48.197 247.2 15.1 242 10.1
2006-04-28 07:46:57 51°12.233 2°48.162 247.2 15.1 242 10.1
2006-04-28 07:47:02 51°12.223 2°48.132 246.8 15.1 242 10.1
2006-04-28 07:47:07 51°12.213 2°48.102 247.3 15.1 242 10
2006-04-28 07:47:12 51°12.204 2°48.073 247.4 15.1 243 10.1
2006-04-28 07:47:17 51°12.194 2°48.044 247.5 15 241 10.1
2006-04-28 07:47:21 51°12.186 2°48.021 246.6 15 241 10.1
2006-04-28 07:47:27 51°12.173 2°47.985 246 15 241 10.1
2006-04-28 07:47:32 51°12.163 2°47.957 246 15 241 10.1
2006-04-28 07:47:37 51°12.152 2°47.928 245.7 15 240 10.1
2006-04-28 07:47:42 51°12.142 2°47.9 245.1 15 239 10.1
2006-04-28 07:47:47 51°12.131 2°47.871 244.5 15 239 10.1
2006-04-28 07:47:52 51°12.12 2°47.843 244.5 15 239 10.1
2006-04-28 07:47:57 51°12.11 2°47.814 244.8 15 240 10.1
2006-04-28 07:48:01 51°12.102 2°47.791 245.4 15 241 10.1
2006-04-28 07:48:07 51°12.09 2°47.756 246 15 241 10
2006-04-28 07:48:12 51°12.08 2°47.727 246.7 15 241 10
2006-04-28 07:48:17 51°12.071 2°47.698 247 15 242 10
2006-04-28 07:48:22 51°12.061 2°47.669 247.9 15 243 10.1
2006-04-28 07:48:27 51°12.051 2°47.639 248.2 14.9 242 10
2006-04-28 07:48:32 51°12.041 2°47.609 247.6 14.9 242 10
2006-04-28 07:48:37 51°12.031 2°47.58 247.3 15 242 10
2006-04-28 07:48:41 51°12.023 2°47.557 246.8 15 241 10
2006-04-28 07:48:47 51°12.011 2°47.523 246.2 15 241 10
2006-04-28 07:48:52 51°12.001 2°47.495 246.4 15 241 10.1
2006-04-28 07:48:57 51°11.992 2°47.465 246.2 15 241 10
2006-04-28 07:49:02 51°11.982 2°47.436 246.8 15 243 10
2006-04-28 07:49:07 51°11.973 2°47.403 248 15.1 243 10
2006-04-28 07:49:12 51°11.964 2°47.373 249 15.1 243 10
2006-04-28 07:49:17 51°11.955 2°47.344 250 15 244 10
2006-04-28 07:49:21 51°11.948 2°47.32 250 15.1 245 10
2006-04-28 07:49:27 51°11.937 2°47.283 249.9 15.1 244 10
2006-04-28 07:49:32 51°11.928 2°47.255 249.2 15.1 244 10.1
2006-04-28 07:49:37 51°11.918 2°47.225 249 15.1 243 10
2006-04-28 07:49:42 51°11.909 2°47.195 248.6 15.1 243 10
2006-04-28 07:49:47 51°11.899 2°47.165 247.9 15.1 242 10
2006-04-28 07:49:52 51°11.889 2°47.135 247.1 15.1 242 10
2006-04-28 07:49:57 51°11.879 2°47.105 246.7 15.2 242 10
2006-04-28 07:50:01 51°11.871 2°47.082 246.7 15.2 242 10
2006-04-28 07:50:07 51°11.859 2°47.046 246.9 15.2 243 10
2006-04-28 07:50:12 51°11.85 2°47.016 247.8 15.2 243 10
2006-04-28 07:50:17 51°11.841 2°46.986 248.5 15.2 244 10
2006-04-28 07:50:22 51°11.832 2°46.957 249.7 15.2 245 10
2006-04-28 07:50:27 51°11.823 2°46.926 250.1 15.2 244 10
2006-04-28 07:50:32 51°11.814 2°46.894 250.1 15.2 244 10
2006-04-28 07:50:37 51°11.805 2°46.862 250 15.2 244 10
2006-04-28 07:50:41 51°11.797 2°46.838 249.7 15.2 245 10
2006-04-28 07:50:47 51°11.786 2°46.802 249.6 15.2 245 10.1
2006-04-28 07:50:52 51°11.778 2°46.771 250 15.2 245 10.1
2006-04-28 07:50:57 51°11.769 2°46.741 250.2 15.2 245 10.1
2006-04-28 07:51:02 51°11.76 2°46.712 250 15.2 244 10.1
2006-04-28 07:51:07 51°11.751 2°46.682 249.9 15.2 245 10.1
2006-04-28 07:51:12 51°11.742 2°46.652 249.9 15.2 245 10.1
2006-04-28 07:51:17 51°11.733 2°46.622 249.9 15.2 245 10.1
2006-04-28 07:51:21 51°11.725 2°46.598 249.5 15.3 244 10.1
2006-04-28 07:51:27 51°11.714 2°46.561 249.2 15.3 244 10.1
2006-04-28 07:51:32 51°11.705 2°46.532 248.9 15.3 244 10.1
2006-04-28 07:51:37 51°11.695 2°46.503 248.8 15.2 243 10.1
2006-04-28 07:51:42 51°11.686 2°46.473 248.4 15.2 243 10.1
2006-04-28 07:51:47 51°11.676 2°46.443 248 15.2 242 10.1
2006-04-28 07:51:52 51°11.667 2°46.412 247.6 15.2 242 10.1
2006-04-28 07:51:57 51°11.658 2°46.381 248.2 15.2 244 10.1
2006-04-28 07:52:01 51°11.65 2°46.357 248.6 15.2 244 10.1
2006-04-28 07:52:07 51°11.639 2°46.32 249.2 15.2 245 10.1
2006-04-28 07:52:12 51°11.63 2°46.29 249.8 15.2 245 10.2
2006-04-28 07:52:17 51°11.621 2°46.259 250 15.2 244 10.1
2006-04-28 07:52:22 51°11.612 2°46.229 249.6 15.2 245 10.1
2006-04-28 07:52:27 51°11.602 2°46.198 249.3 15.2 244 10.1
2006-04-28 07:52:32 51°11.593 2°46.169 248.3 15.2 244 10.1
2006-04-28 07:52:37 51°11.583 2°46.139 248.1 15.1 243 10.1
2006-04-28 07:52:41 51°11.576 2°46.115 247.6 15.1 243 10
2006-04-28 07:52:47 51°11.564 2°46.079 247.7 15.1 243 10
2006-04-28 07:52:52 51°11.555 2°46.05 248 15.1 244 10
2006-04-28 07:52:57 51°11.546 2°46.02 248.9 15.1 245 10
2006-04-28 07:53:02 51°11.537 2°45.99 249.7 15 244 10
2006-04-28 07:53:07 51°11.529 2°45.96 249.8 15.1 245 9.9
2006-04-28 07:53:12 51°11.52 2°45.93 250.4 15.1 245 10
2006-04-28 07:53:17 51°11.511 2°45.9 250.5 15 246 9.9
2006-04-28 07:53:21 51°11.504 2°45.876 250.8 15 245 9.9
2006-04-28 07:53:27 51°11.494 2°45.84 250.4 15 245 9.9
2006-04-28 07:53:32 51°11.485 2°45.81 250.1 15 245 9.9
2006-04-28 07:53:37 51°11.476 2°45.781 249.6 15 245 9.9
2006-04-28 07:53:42 51°11.467 2°45.75 249.6 15 245 9.9
2006-04-28 07:53:47 51°11.458 2°45.72 249.6 15 245 9.9
2006-04-28 07:53:52 51°11.45 2°45.691 249.6 15 245 9.9
2006-04-28 07:53:57 51°11.442 2°45.66 250.5 15 249 9.9
2006-04-28 07:54:01 51°11.436 2°45.636 253 15 248 9.9
2006-04-28 07:54:07 51°11.428 2°45.598 254.9 14.9 251 9.9
2006-04-28 07:54:12 51°11.421 2°45.567 255.8 14.9 250 9.9
2006-04-28 07:54:17 51°11.414 2°45.536 256.3 14.9 252 9.9
2006-04-28 07:54:22 51°11.408 2°45.505 256.9 14.9 251 9.9
2006-04-28 07:54:27 51°11.401 2°45.473 257 14.9 252 10
2006-04-28 07:54:32 51°11.394 2°45.44 256.9 14.9 252 9.9
2006-04-28 07:54:37 51°11.386 2°45.406 256.6 15 251 10
2006-04-28 07:54:41 51°11.381 2°45.383 256.9 14.9 251 10
2006-04-28 07:54:47 51°11.373 2°45.347 257.1 14.9 251 9.9
2006-04-28 07:54:52 51°11.367 2°45.317 257.2 15 251 9.9
2006-04-28 07:54:57 51°11.36 2°45.286 256.4 15 250 10
2006-04-28 07:55:02 51°11.353 2°45.256 255.9 15 250 10
2006-04-28 07:55:07 51°11.347 2°45.225 255.9 15 251 9.9
2006-04-28 07:55:12 51°11.34 2°45.193 256.7 15 251 9.9
2006-04-28 07:55:17 51°11.334 2°45.163 257 15 252 10
2006-04-28 07:55:21 51°11.329 2°45.138 257.5 15.1 252 10
2006-04-28 07:55:27 51°11.321 2°45.101 257.5 15 251 10
2006-04-28 07:55:32 51°11.314 2°45.07 257.2 15.1 251 10
2006-04-28 07:55:37 51°11.308 2°45.039 257.1 15.1 252 10
2006-04-28 07:55:42 51°11.301 2°45.007 257.7 15.1 252 10.1
2006-04-28 07:55:47 51°11.295 2°44.975 257.7 15.1 252 10
2006-04-28 07:55:52 51°11.289 2°44.944 257.7 15.1 252 10
2006-04-28 07:55:57 51°11.282 2°44.912 257.2 15.1 252 10
2006-04-28 07:56:01 51°11.275 2°44.881 257.1 15.1 251 10.1
2006-04-28 07:56:07 51°11.266 2°44.843 256.6 15.1 250 10.1
2006-04-28 07:56:12 51°11.26 2°44.815 256.4 15.1 251 10.1
2006-04-28 07:56:17 51°11.253 2°44.786 255.9 15.1 250 10
2006-04-28 07:56:21 51°11.247 2°44.762 255 15.2 249 10
2006-04-28 07:56:27 51°11.239 2°44.725 254.7 15.1 249 10
2006-04-28 07:56:29 51°11.236 2°44.713 254.4 15.1 249 10
2006-04-28 07:56:37 51°11.222 2°44.655 254.1 15.1 249 10
2006-04-28 07:56:41 51°11.217 2°44.631 254.3 15.1 251 10
2006-04-28 07:56:46 51°11.21 2°44.601 255.7 15.1 252 10
2006-04-28 07:56:51 51°11.205 2°44.57 257.8 15 253 10
2006-04-28 07:56:57 51°11.197 2°44.532 258.6 15.1 253 10
2006-04-28 07:57:02 51°11.192 2°44.5 259.8 15.1 255 10
2006-04-28 07:57:05 51°11.189 2°44.48 261 15 255 10
2006-04-28 07:57:12 51°11.182 2°44.435 261.3 15.1 255 10.1
2006-04-28 07:57:17 51°11.177 2°44.403 261.7 15.1 255 10
2006-04-28 07:57:22 51°11.171 2°44.371 261.8 15.1 255 10.1
2006-04-28 07:57:26 51°11.167 2°44.345 261.5 15.1 256 10.1
2006-04-28 07:57:32 51°11.161 2°44.306 261.7 15.1 256 10.1
2006-04-28 07:57:37 51°11.155 2°44.274 261.8 15.1 256 10.1
2006-04-28 07:57:42 51°11.15 2°44.242 262 15.1 256 10.2
2006-04-28 07:57:46 51°11.146 2°44.216 262.2 15.1 256 10.2
2006-04-28 07:57:52 51°11.14 2°44.178 262 15.1 256 10.2
2006-04-28 07:57:57 51°11.135 2°44.145 262.1 15.1 256 10.2
2006-04-28 07:58:02 51°11.13 2°44.112 261.9 15.1 256 10.2
2006-04-28 07:58:06 51°11.125 2°44.087 261.8 15.1 255 10.2
2006-04-28 07:58:12 51°11.118 2°44.048 260.9 15.2 254 10.2
2006-04-28 07:58:17 51°11.112 2°44.016 260.1 15.1 254 10.2
2006-04-28 07:58:22 51°11.106 2°43.984 259.8 15.1 254 10.3
2006-04-28 07:58:26 51°11.102 2°43.958 259.2 15.1 253 10.3
2006-04-28 07:58:31 51°11.095 2°43.926 259.2 15.2 254 10.3
2006-04-28 07:58:37 51°11.089 2°43.887 259.3 15.2 255 10.3
2006-04-28 07:58:42 51°11.083 2°43.855 260.3 15.1 255 10.3
2006-04-28 07:58:46 51°11.079 2°43.829 260.6 15.1 255 10.3
2006-04-28 07:58:52 51°11.072 2°43.791 260.6 15.2 255 10.3
2006-04-28 07:58:57 51°11.067 2°43.758 260.5 15.1 255 10.3
2006-04-28 07:59:02 51°11.061 2°43.726 260.5 15.1 255 10.4
2006-04-28 07:59:06 51°11.057 2°43.7 260.6 15.1 254 10.4
2006-04-28 07:59:12 51°11.05 2°43.662 260.4 15.1 255 10.4
2006-04-28 07:59:17 51°11.044 2°43.629 260.4 15.1 254 10.4
2006-04-28 07:59:22 51°11.039 2°43.597 260.4 15.1 256 10.4
2006-04-28 07:59:26 51°11.035 2°43.571 261.2 15.1 256 10.3
2006-04-28 07:59:31 51°11.03 2°43.538 261.8 15.1 257 10.4
2006-04-28 07:59:37 51°11.024 2°43.5 262 15.1 256 10.4
2006-04-28 07:59:42 51°11.018 2°43.468 262 15.1 255 10.4
2006-04-28 07:59:46 51°11.014 2°43.442 261.2 15.2 255 10.4
2006-04-28 07:59:52 51°11.007 2°43.403 260.5 15.1 255 10.5
2006-04-28 07:59:57 51°11.002 2°43.371 260.5 15.1 254 10.5
2006-04-28 08:00:02 51°10.996 2°43.338 260.2 15.2 254 10.5
2006-04-28 08:00:06 51°10.992 2°43.313 259.7 15.2 254 10.6
2006-04-28 08:00:12 51°10.985 2°43.274 259.8 15.2 255 10.5
2006-04-28 08:00:17 51°10.979 2°43.241 260.1 15.1 255 10.5
2006-04-28 08:00:22 51°10.974 2°43.21 260.4 15.1 255 10.5
2006-04-28 08:00:26 51°10.969 2°43.184 260.5 15.1 255 10.5
2006-04-28 08:00:32 51°10.963 2°43.145 260.5 15.1 256 10.5
2006-04-28 08:00:37 51°10.958 2°43.113 261 15.1 256 10.5
2006-04-28 08:00:41 51°10.954 2°43.087 261.2 15.1 256 10.5
2006-04-28 08:00:46 51°10.949 2°43.054 261.8 15 257 10.5
2006-04-28 08:00:52 51°10.943 2°43.016 261.7 15 255 10.6
2006-04-28 08:00:56 51°10.938 2°42.99 261 15 255 10.6
2006-04-28 08:01:02 51°10.931 2°42.952 260.2 15 254 10.5
2006-04-28 08:01:05 51°10.927 2°42.933 259.1 15 253 10.5
2006-04-28 08:01:11 51°10.92 2°42.895 258.4 15 253 10.5
2006-04-28 08:01:17 51°10.913 2°42.857 258.3 15.1 254 10.5
2006-04-28 08:01:22 51°10.907 2°42.825 258.7 15.1 254 10.6
2006-04-28 08:01:26 51°10.903 2°42.799 259.4 15 255 10.6
2006-04-28 08:01:31 51°10.897 2°42.767 260.4 15 255 10.6
2006-04-28 08:01:37 51°10.891 2°42.729 260.5 15 255 10.6
2006-04-28 08:01:42 51°10.886 2°42.696 261 15 257 10.6
2006-04-28 08:01:46 51°10.882 2°42.671 261.9 15.1 255 10.7
2006-04-28 08:01:52 51°10.876 2°42.632 261.2 15.1 256 10.6
2006-04-28 08:01:57 51°10.87 2°42.6 260.7 15 255 10.6
2006-04-28 08:02:02 51°10.864 2°42.568 260 15 254 10.6
2006-04-28 08:02:06 51°10.859 2°42.543 259.5 15 253 10.6
2006-04-28 08:02:12 51°10.852 2°42.504 258.3 15.1 253 10.6
2006-04-28 08:02:17 51°10.846 2°42.472 257.7 15.1 252 10.6
2006-04-28 08:02:22 51°10.839 2°42.441 257.6 15.1 253 10.6
2006-04-28 08:02:26 51°10.835 2°42.415 257.5 15.1 253 10.6
2006-04-28 08:02:31 51°10.829 2°42.383 258.3 15.1 254 10.6
2006-04-28 08:02:37 51°10.823 2°42.344 259.5 15 256 10.6
2006-04-28 08:02:42 51°10.818 2°42.312 260.5 15 256 10.6
2006-04-28 08:02:46 51°10.814 2°42.286 260.9 15 256 10.7
2006-04-28 08:02:52 51°10.808 2°42.248 261.1 15 256 10.6
2006-04-28 08:02:57 51°10.803 2°42.216 261.5 14.9 256 10.6
2006-04-28 08:03:02 51°10.798 2°42.185 261.1 14.9 256 10.6
2006-04-28 08:03:06 51°10.794 2°42.159 260.8 14.9 256 10.7
2006-04-28 08:03:12 51°10.787 2°42.121 260.4 14.9 255 10.7
2006-04-28 08:03:17 51°10.782 2°42.089 260.1 14.9 256 10.7
2006-04-28 08:03:22 51°10.776 2°42.057 260.6 14.9 255 10.7
2006-04-28 08:03:26 51°10.773 2°42.032 260.5 14.9 256 10.7
2006-04-28 08:03:32 51°10.766 2°41.994 260.6 14.9 256 10.7
2006-04-28 08:03:37 51°10.761 2°41.962 260.6 14.9 255 10.7
2006-04-28 08:03:41 51°10.757 2°41.936 260.6 14.9 255 10.8
2006-04-28 08:03:46 51°10.751 2°41.905 260.6 14.9 255 10.8
2006-04-28 08:03:52 51°10.745 2°41.866 260.2 14.9 255 10.8
2006-04-28 08:03:56 51°10.741 2°41.841 260.3 14.8 255 10.8
2006-04-28 08:04:02 51°10.734 2°41.804 260.2 14.8 255 10.8
2006-04-28 08:04:05 51°10.731 2°41.784 260 14.9 256 10.7
2006-04-28 08:04:11 51°10.725 2°41.746 260.4 14.9 255 10.8
2006-04-28 08:04:17 51°10.719 2°41.708 260.4 14.9 256 10.8
2006-04-28 08:04:22 51°10.714 2°41.676 260.7 14.9 256 10.8
2006-04-28 08:04:26 51°10.71 2°41.65 261.2 14.9 256 10.8
2006-04-28 08:04:31 51°10.705 2°41.618 261.3 14.9 257 10.8
2006-04-28 08:04:37 51°10.7 2°41.579 261.6 14.9 256 10.8
2006-04-28 08:04:42 51°10.694 2°41.548 261.5 14.9 256 10.9
2006-04-28 08:04:46 51°10.69 2°41.522 261.3 14.8 256 10.8
2006-04-28 08:04:52 51°10.684 2°41.484 260.7 14.8 256 10.9
2006-04-28 08:04:57 51°10.679 2°41.453 260.8 14.8 256 10.9
2006-04-28 08:05:02 51°10.675 2°41.421 261.3 14.8 257 10.9
2006-04-28 08:05:05 51°10.672 2°41.401 261.7 14.8 257 10.9
2006-04-28 08:05:12 51°10.665 2°41.357 261.6 14.8 257 10.9
2006-04-28 08:05:17 51°10.66 2°41.325 261.6 14.8 256 10.9
2006-04-28 08:05:21 51°10.656 2°41.3 261.2 14.8 255 10.9
2006-04-28 08:05:27 51°10.65 2°41.262 260.2 14.8 255 10.9
2006-04-28 08:05:32 51°10.644 2°41.231 260.2 14.8 255 11
2006-04-28 08:05:37 51°10.639 2°41.199 259.6 14.8 254 11
2006-04-28 08:05:42 51°10.633 2°41.168 258.8 14.8 255 10.9
2006-04-28 08:05:47 51°10.628 2°41.136 258.7 14.8 255 10.9
2006-04-28 08:05:52 51°10.623 2°41.105 259.1 14.8 255 10.9
2006-04-28 08:05:57 51°10.617 2°41.073 259.7 14.8 256 10.9
2006-04-28 08:06:01 51°10.613 2°41.048 260.3 14.7 256 10.9
2006-04-28 08:06:06 51°10.609 2°41.016 260.5 14.7 256 10.9
2006-04-28 08:06:11 51°10.603 2°40.984 260.5 14.7 255 11
2006-04-28 08:06:17 51°10.597 2°40.947 260.3 14.7 255 11
2006-04-28 08:06:22 51°10.591 2°40.916 259.9 14.7 255 11
2006-04-28 08:06:25 51°10.588 2°40.897 258.9 14.7 254 11
2006-04-28 08:06:32 51°10.58 2°40.853 258.4 14.7 254 11
2006-04-28 08:06:36 51°10.576 2°40.828 258.3 14.7 254 11.1
2006-04-28 08:06:42 51°10.57 2°40.791 258.3 14.7 255 11.1
2006-04-28 08:06:46 51°10.566 2°40.765 259.2 14.7 255 11.1
2006-04-28 08:06:52 51°10.56 2°40.728 259.7 14.7 255 11.1
2006-04-28 08:06:57 51°10.554 2°40.696 260.1 14.7 256 11.1
2006-04-28 08:07:01 51°10.551 2°40.671 260.6 14.6 257 11.2
2006-04-28 08:07:06 51°10.546 2°40.64 260.9 14.7 256 11.2
2006-04-28 08:07:11 51°10.54 2°40.608 260.7 14.6 257 11.2
2006-04-28 08:07:17 51°10.533 2°40.572 260.6 14.6 255 11.3
2006-04-28 08:07:22 51°10.528 2°40.541 259.8 14.7 256 11.4
2006-04-28 08:07:26 51°10.524 2°40.515 259.8 14.6 255 11.4
2006-04-28 08:07:32 51°10.518 2°40.478 259.5 14.6 255 11.4
2006-04-28 08:07:35 51°10.515 2°40.459 259.3 14.7 254 11.5
2006-04-28 08:07:42 51°10.507 2°40.417 259.2 14.7 255 11.5
2006-04-28 08:07:47 51°10.502 2°40.385 258.9 14.7 254 11.6
2006-04-28 08:07:52 51°10.496 2°40.354 258.9 14.7 255 11.6
2006-04-28 08:07:57 51°10.492 2°40.323 259.2 14.7 255 11.7
2006-04-28 08:08:02 51°10.487 2°40.29 259.9 14.6 256 11.8
2006-04-28 08:08:06 51°10.482 2°40.262 260.3 14.7 256 11.8
2006-04-28 08:08:11 51°10.477 2°40.23 260.4 14.7 257 11.8
2006-04-28 08:08:17 51°10.471 2°40.193 261 14.7 256 11.8
2006-04-28 08:08:22 51°10.467 2°40.162 261.2 14.7 257 11.9
2006-04-28 08:08:27 51°10.462 2°40.131 261.2 14.7 256 12
2006-04-28 08:08:31 51°10.458 2°40.105 261.1 14.7 257 12
2006-04-28 08:08:37 51°10.452 2°40.068 261.1 14.7 256 12
2006-04-28 08:08:41 51°10.448 2°40.042 261.2 14.7 256 12
2006-04-28 08:08:48 51°10.442 2°39.998 261.2 14.7 257 12.1
2006-04-28 08:08:52 51°10.437 2°39.973 261.2 14.7 256 12.1
2006-04-28 08:08:57 51°10.433 2°39.941 260.8 14.6 257 12.2
2006-04-28 08:09:02 51°10.427 2°39.909 261 14.7 255 12.2
2006-04-28 08:09:07 51°10.422 2°39.878 260.4 14.7 255 12.3
2006-04-28 08:09:12 51°10.417 2°39.847 259.6 14.7 255 12.3
2006-04-28 08:09:17 51°10.412 2°39.816 259.4 14.7 256 12.3
2006-04-28 08:09:22 51°10.407 2°39.784 259.8 14.7 255 12.4
2006-04-28 08:09:27 51°10.402 2°39.753 260.1 14.7 256 12.5
2006-04-28 08:09:32 51°10.397 2°39.722 260.5 14.7 256 12.5
2006-04-28 08:09:37 51°10.392 2°39.69 260.5 14.8 255 12.6
2006-04-28 08:09:42 51°10.387 2°39.659 260.2 14.7 256 12.7
2006-04-28 08:09:46 51°10.383 2°39.634 260.5 14.7 256 12.7
2006-04-28 08:09:51 51°10.378 2°39.603 260.3 14.8 256 12.7
2006-04-28 08:09:57 51°10.372 2°39.565 260.4 14.8 255 12.8
2006-04-28 08:10:01 51°10.368 2°39.54 260.4 14.8 256 12.8
2006-04-28 08:10:07 51°10.362 2°39.502 260.4 14.8 256 12.9
2006-04-28 08:10:12 51°10.357 2°39.471 260.4 14.8 256 13
2006-04-28 08:10:17 51°10.352 2°39.439 260.1 14.8 255 13
2006-04-28 08:10:21 51°10.347 2°39.414 259.9 14.8 255 13.1
2006-04-28 08:10:27 51°10.341 2°39.376 259.8 14.8 255 13.2
2006-04-28 08:10:32 51°10.336 2°39.345 259.7 14.7 256 13.2
2006-04-28 08:10:37 51°10.332 2°39.313 260.5 14.8 256 13.4
2006-04-28 08:10:42 51°10.327 2°39.281 260.9 14.7 256 13.5
2006-04-28 08:10:47 51°10.323 2°39.249 261 14.7 257 13.5
2006-04-28 08:10:52 51°10.318 2°39.218 261.2 14.7 256 13.4
2006-04-28 08:10:57 51°10.312 2°39.186 260.7 14.7 256 13.5
2006-04-28 08:11:01 51°10.308 2°39.161 260.1 14.7 256 13.7
2006-04-28 08:11:06 51°10.303 2°39.13 259.7 14.7 254 13.8
2006-04-28 08:11:11 51°10.298 2°39.098 259.2 14.8 255 13.8
2006-04-28 08:11:17 51°10.291 2°39.061 258.7 14.8 254 13.7
2006-04-28 08:11:21 51°10.287 2°39.036 258.9 14.8 255 13.7
2006-04-28 08:11:25 51°10.282 2°39.01 259.2 14.8 255 13.8
2006-04-28 08:11:32 51°10.275 2°38.966 259.5 14.8 255 13.7
2006-04-28 08:11:37 51°10.27 2°38.935 260 14.8 255 13.7
2006-04-28 08:11:42 51°10.265 2°38.903 260.3 14.8 256 13.8
2006-04-28 08:11:47 51°10.26 2°38.871 260.5 14.8 256 13.9
2006-04-28 08:11:52 51°10.255 2°38.84 260.5 14.8 256 13.9
2006-04-28 08:11:58 51°10.249 2°38.802 260.5 14.8 256 14
2006-04-28 08:12:02 51°10.245 2°38.777 260.9 14.8 256 14.1
2006-04-28 08:12:07 51°10.24 2°38.745 260.9 14.8 256 14
2006-04-28 08:12:12 51°10.235 2°38.713 260.7 14.8 256 14.3
2006-04-28 08:12:18 51°10.229 2°38.676 260.5 14.8 255 14.1
2006-04-28 08:12:22 51°10.224 2°38.651 259.9 14.8 255 14.2
2006-04-28 08:12:27 51°10.219 2°38.619 259.3 14.8 255 14.5
2006-04-28 08:12:32 51°10.214 2°38.588 259.3 14.8 255 14.5
2006-04-28 08:12:37 51°10.209 2°38.556 259.8 14.8 256 14.1
2006-04-28 08:12:42 51°10.204 2°38.524 260.3 14.7 256 14.1
2006-04-28 08:12:47 51°10.199 2°38.492 260.5 14.8 257 14.5
2006-04-28 08:12:52 51°10.194 2°38.461 260.7 14.8 257 14.7
2006-04-28 08:12:57 51°10.19 2°38.43 261.1 14.7 257 14.6
2006-04-28 08:13:01 51°10.185 2°38.405 260.7 14.7 255 14.3
2006-04-28 08:13:07 51°10.18 2°38.367 260.3 14.7 256 14.6
2006-04-28 08:13:12 51°10.174 2°38.335 260 14.7 256 14.3
2006-04-28 08:13:16 51°10.17 2°38.31 259.7 14.7 256 14.3
2006-04-28 08:13:22 51°10.164 2°38.272 259.9 14.7 256 14.4
2006-04-28 08:13:27 51°10.16 2°38.24 259.9 14.8 256 14.4
2006-04-28 08:13:32 51°10.155 2°38.209 260.1 14.8 255 14.4
2006-04-28 08:13:38 51°10.148 2°38.171 260.1 14.8 256 14.6
2006-04-28 08:13:42 51°10.145 2°38.145 259.8 14.8 256 15.1
2006-04-28 08:13:46 51°10.14 2°38.12 259.8 14.8 255 15.1
2006-04-28 08:13:51 51°10.135 2°38.088 259.6 14.9 256 15.1
2006-04-28 08:13:57 51°10.129 2°38.051 259.9 14.9 256 15
2006-04-28 08:14:02 51°10.124 2°38.019 260.2 14.9 257 15.3
2006-04-28 08:14:06 51°10.121 2°37.993 260.5 14.9 257 14.7
2006-04-28 08:14:12 51°10.115 2°37.955 261.1 14.9 257 15.2
2006-04-28 08:14:15 51°10.112 2°37.935 261 14.9 255 15.4
2006-04-28 08:14:22 51°10.105 2°37.891 259.8 14.9 256 15.4
2006-04-28 08:14:27 51°10.099 2°37.859 259.7 14.9 255 15.5
2006-04-28 08:14:32 51°10.094 2°37.828 258.9 14.9 254 15.5
2006-04-28 08:14:37 51°10.088 2°37.796 258.3 14.9 255 15.5
2006-04-28 08:14:42 51°10.083 2°37.764 258.7 14.9 255 15.6
2006-04-28 08:14:46 51°10.079 2°37.739 259.2 14.9 255 15.7
2006-04-28 08:14:51 51°10.074 2°37.706 259.6 14.9 256 15.6
2006-04-28 08:14:57 51°10.068 2°37.668 260.1 14.9 255 15.9
2006-04-28 08:15:01 51°10.064 2°37.643 260 14.9 256 15.8
2006-04-28 08:15:07 51°10.057 2°37.604 260 14.9 255 15.8
2006-04-28 08:15:12 51°10.052 2°37.573 259.6 14.9 255 15.9
2006-04-28 08:15:17 51°10.046 2°37.541 259.5 15 255 16.1
2006-04-28 08:15:21 51°10.042 2°37.515 259.4 15 255 15.9
2006-04-28 08:15:27 51°10.036 2°37.476 259.2 15 255 15.9
2006-04-28 08:15:32 51°10.031 2°37.444 259.4 15 256 15.9
2006-04-28 08:15:37 51°10.026 2°37.412 259.7 15 256 16
2006-04-28 08:15:42 51°10.021 2°37.38 260.3 15 257 16
2006-04-28 08:15:47 51°10.016 2°37.348 261.1 14.9 257 16.1
2006-04-28 08:15:52 51°10.011 2°37.316 261.2 14.9 256 16
2006-04-28 08:15:57 51°10.007 2°37.284 261.3 14.8 257 16
2006-04-28 08:16:01 51°10.004 2°37.259 261.3 14.8 257 16
2006-04-28 08:16:06 51°9.999 2°37.227 261.6 14.8 257 16
2006-04-28 08:16:11 51°9.995 2°37.195 261.3 14.8 258 16
2006-04-28 08:16:17 51°9.989 2°37.157 262 14.8 256 16
2006-04-28 08:16:21 51°9.985 2°37.132 261.3 14.7 257 16.1
2006-04-28 08:16:25 51°9.981 2°37.107 260.7 14.7 256 16
2006-04-28 08:16:31 51°9.975 2°37.068 260.1 14.8 255 15.8
2006-04-28 08:16:37 51°9.968 2°37.031 259.5 14.8 255 16.2
2006-04-28 08:16:41 51°9.964 2°37.006 259.1 14.9 255 16.1
2006-04-28 08:16:46 51°9.959 2°36.974 259.3 14.9 256 16.2
2006-04-28 08:16:51 51°9.956 2°36.941 262.1 14.8 260 16.1
2006-04-28 08:16:57 51°9.952 2°36.903 264.4 14.8 261 16.3
2006-04-28 08:17:02 51°9.951 2°36.871 267.6 14.7 265 16.2
2006-04-28 08:17:07 51°9.95 2°36.838 270.6 14.7 266 16.4
2006-04-28 08:17:11 51°9.949 2°36.812 272.2 14.7 267 16.4
2006-04-28 08:17:17 51°9.949 2°36.774 274 14.7 269 16.2
2006-04-28 08:17:21 51°9.949 2°36.748 275.3 14.6 271 16.1
2006-04-28 08:17:28 51°9.949 2°36.702 276.4 14.7 270 16.3
2006-04-28 08:17:32 51°9.949 2°36.677 276.5 14.7 271 16.5
2006-04-28 08:17:37 51°9.95 2°36.645 277.1 14.7 271 16.5
2006-04-28 08:17:42 51°9.95 2°36.612 277.4 14.7 271 16.3
2006-04-28 08:17:48 51°9.95 2°36.573 277.2 14.7 270 16.1
2006-04-28 08:17:52 51°9.95 2°36.548 276.7 14.7 270 16
2006-04-28 08:17:57 51°9.95 2°36.515 276.5 14.7 270 16
2006-04-28 08:18:01 51°9.951 2°36.489 276.4 14.6 271 16.4
2006-04-28 08:18:05 51°9.951 2°36.464 276.5 14.5 270 16.3
2006-04-28 08:18:12 51°9.951 2°36.419 276.5 14.5 270 16.2
2006-04-28 08:18:16 51°9.951 2°36.393 276 14.5 271 16.3
2006-04-28 08:18:22 51°9.952 2°36.355 275.9 14.5 271 16.1
2006-04-28 08:18:27 51°9.954 2°36.323 277.6 14.5 271 16.3
2006-04-28 08:18:32 51°9.956 2°36.292 280.2 14.4 276 16.3
2006-04-28 08:18:37 51°9.959 2°36.261 282.5 14.2 278 16.6
2006-04-28 08:18:41 51°9.961 2°36.236 284.5 14.2 279 16.6
2006-04-28 08:18:47 51°9.966 2°36.199 285.4 14.2 280 16.5
2006-04-28 08:18:52 51°9.969 2°36.169 286.6 14.1 281 16.4
2006-04-28 08:18:57 51°9.973 2°36.138 287.2 14.1 281 16.6
2006-04-28 08:19:01 51°9.976 2°36.114 287.7 14 282 16.7
2006-04-28 08:19:05 51°9.98 2°36.09 287.8 14 281 16.7
2006-04-28 08:19:12 51°9.985 2°36.048 287.6 14 281 16.7
2006-04-28 08:19:16 51°9.988 2°36.023 287.4 14 281 16.6
2006-04-28 08:19:22 51°9.993 2°35.987 287.3 14 282 16.4
2006-04-28 08:19:25 51°9.997 2°35.97 290.1 13.9 288 16.4
2006-04-28 08:19:32 51°10.006 2°35.93 293.5 13.8 290 16.3
2006-04-28 08:19:37 51°10.013 2°35.902 297.5 13.7 292 16.1
2006-04-28 08:19:42 51°10.021 2°35.874 299.4 13.7 294 15.8
2006-04-28 08:19:46 51°10.028 2°35.853 301 13.6 296 15.5
2006-04-28 08:19:52 51°10.039 2°35.822 303 13.6 299 15.2
2006-04-28 08:19:57 51°10.05 2°35.797 307.1 13.4 303 14.9
2006-04-28 08:20:01 51°10.059 2°35.779 311.4 13.3 307 14.4
2006-04-28 08:20:05 51°10.068 2°35.761 315.1 13.1 311 13.7
2006-04-28 08:20:11 51°10.083 2°35.735 317.8 13.1 311 13.3
2006-04-28 08:20:16 51°10.097 2°35.717 321.3 12.9 319 12.8
2006-04-28 08:20:22 51°10.114 2°35.696 326 12.8 322 11.6
2006-04-28 08:20:26 51°10.125 2°35.684 329.7 12.6 325 10.8
2006-04-28 08:20:32 51°10.143 2°35.668 334 12.5 330 10.3
2006-04-28 08:20:35 51°10.153 2°35.661 338.7 12.2 336 9.7
2006-04-28 08:20:42 51°10.175 2°35.649 344.1 12.1 338 9.7
2006-04-28 08:20:47 51°10.191 2°35.641 348.4 12.1 343 9.5
2006-04-28 08:20:52 51°10.208 2°35.635 351.7 12.1 346 9.5
2006-04-28 08:20:57 51°10.224 2°35.63 354.1 12.1 348 9.5
2006-04-28 08:21:02 51°10.241 2°35.625 356.1 12.1 350 9.6
2006-04-28 08:21:07 51°10.258 2°35.622 357.6 12.2 352 9.9
2006-04-28 08:21:12 51°10.275 2°35.62 359.9 12.1 354 9.8
2006-04-28 08:21:17 51°10.292 2°35.62 3.4 12.1 359 9.9
2006-04-28 08:21:21 51°10.305 2°35.621 6.5 12 2 9.8
2006-04-28 08:21:27 51°10.325 2°35.623 8.8 12 3 9.8
2006-04-28 08:21:32 51°10.341 2°35.626 10.2 12 5 9.9
2006-04-28 08:21:37 51°10.358 2°35.63 11.6 12 7 9.7
2006-04-28 08:21:42 51°10.374 2°35.636 13.9 11.9 11 9.9
2006-04-28 08:21:47 51°10.39 2°35.644 18.1 11.9 17 9.5
2006-04-28 08:21:50 51°10.398 2°35.65 22.5 11.8 22 9.7
2006-04-28 08:21:56 51°10.416 2°35.663 26.5 11.7 25 9.6
2006-04-28 08:22:02 51°10.433 2°35.677 29.4 11.6 27 9.7
2006-04-28 08:22:07 51°10.448 2°35.689 31.5 11.6 29 9.6
2006-04-28 08:22:12 51°10.461 2°35.702 33.1 11.6 30 9.3
2006-04-28 08:22:17 51°10.475 2°35.715 34.1 11.6 31 9.5
2006-04-28 08:22:22 51°10.489 2°35.729 34.8 11.7 31 9.3
2006-04-28 08:22:27 51°10.503 2°35.743 35.5 11.7 32 9.5
2006-04-28 08:22:32 51°10.516 2°35.756 35.6 11.6 32 9.4
2006-04-28 08:22:37 51°10.53 2°35.77 35.8 11.7 32 9.3
2006-04-28 08:22:42 51°10.544 2°35.784 36.1 11.7 32 9.2
2006-04-28 08:22:46 51°10.555 2°35.794 36.1 11.6 32 9.5
2006-04-28 08:22:52 51°10.571 2°35.81 36 11.7 32 9.4
2006-04-28 08:22:55 51°10.58 2°35.818 35.5 11.6 31 9.3
2006-04-28 08:23:02 51°10.599 2°35.837 35.1 11.6 31 9.3
2006-04-28 08:23:07 51°10.613 2°35.849 34.3 11.6 30 9.2
2006-04-28 08:23:12 51°10.627 2°35.862 33.7 11.7 29 9.4
2006-04-28 08:23:18 51°10.645 2°35.876 33 11.7 28 9.6
2006-04-28 08:23:21 51°10.653 2°35.883 32.2 11.7 28 9.5
2006-04-28 08:23:27 51°10.671 2°35.898 31.9 11.7 28 9.6
2006-04-28 08:23:31 51°10.682 2°35.907 31.8 11.8 28 9.6
2006-04-28 08:23:37 51°10.699 2°35.922 32 11.8 28 9.4
2006-04-28 08:23:41 51°10.71 2°35.933 32.9 11.7 30 9.3
2006-04-28 08:23:46 51°10.724 2°35.946 34.1 11.7 31 9.7
2006-04-28 08:23:51 51°10.738 2°35.96 35.3 11.7 32 9.3
2006-04-28 08:23:57 51°10.754 2°35.977 36.2 11.8 33 9.5
2006-04-28 08:24:02 51°10.768 2°35.992 36.6 11.8 33 9.7
2006-04-28 08:24:07 51°10.781 2°36.006 36.7 11.8 33 9.7
2006-04-28 08:24:12 51°10.795 2°36.019 36.5 11.7 33 9.6
2006-04-28 08:24:17 51°10.809 2°36.033 36.2 11.7 31 9.8
2006-04-28 08:24:22 51°10.823 2°36.046 35.5 11.7 31 9.6
2006-04-28 08:24:26 51°10.834 2°36.056 34.7 11.7 30 9.7
2006-04-28 08:24:32 51°10.851 2°36.071 34 11.7 29 9.9
2006-04-28 08:24:35 51°10.86 2°36.079 33.2 11.8 29 10
2006-04-28 08:24:42 51°10.88 2°36.097 32.8 11.7 29 9.8
2006-04-28 08:24:48 51°10.896 2°36.112 32.9 11.7 30 10
2006-04-28 08:24:52 51°10.908 2°36.123 33.5 11.8 30 9.9
2006-04-28 08:24:57 51°10.922 2°36.136 34.1 11.8 31 9.8
2006-04-28 08:25:02 51°10.935 2°36.15 34.7 11.8 32 9.8
2006-04-28 08:25:07 51°10.949 2°36.164 35.7 11.7 32 10
2006-04-28 08:25:12 51°10.963 2°36.178 36.2 11.7 33 9.9
2006-04-28 08:25:17 51°10.976 2°36.192 36.5 11.8 33 10.1
2006-04-28 08:25:22 51°10.99 2°36.206 37 11.8 34 10.1
2006-04-28 08:25:27 51°11.004 2°36.22 37 11.8 33 10.3
2006-04-28 08:25:32 51°11.017 2°36.234 36.5 11.7 32 10.2
2006-04-28 08:25:38 51°11.034 2°36.251 36.2 11.7 32 10
2006-04-28 08:25:41 51°11.042 2°36.258 35.8 11.7 32 10.3
2006-04-28 08:25:47 51°11.059 2°36.275 35.4 11.7 31 10.2
2006-04-28 08:25:52 51°11.073 2°36.288 34.9 11.7 31 10.3
2006-04-28 08:25:57 51°11.087 2°36.301 34.4 11.8 30 10.4
2006-04-28 08:26:01 51°11.098 2°36.311 34 11.8 30 10.2
2006-04-28 08:26:06 51°11.112 2°36.324 33.7 11.7 29 10.2
2006-04-28 08:26:11 51°11.127 2°36.336 33 11.7 29 10
2006-04-28 08:26:16 51°11.141 2°36.349 32.6 11.7 29 10.1
2006-04-28 08:26:22 51°11.158 2°36.364 32.9 11.8 29 10.3
2006-04-28 08:26:26 51°11.169 2°36.374 33 11.8 30 10.2
2006-04-28 08:26:32 51°11.186 2°36.39 33.5 11.7 30 10.2
2006-04-28 08:26:36 51°11.197 2°36.4 34.4 11.7 31 10.4
2006-04-28 08:26:42 51°11.214 2°36.417 35.2 11.7 31 10.3
2006-04-28 08:26:46 51°11.224 2°36.428 35.7 11.7 32 10.3
2006-04-28 08:26:52 51°11.241 2°36.444 36.2 11.7 32 10.2
2006-04-28 08:26:57 51°11.255 2°36.458 36.4 11.7 32 10.3
2006-04-28 08:27:01 51°11.265 2°36.469 36.3 11.7 33 10.4
2006-04-28 08:27:08 51°11.285 2°36.488 36.5 11.7 32 10.3
2006-04-28 08:27:12 51°11.295 2°36.499 36.3 11.7 32 10.2
2006-04-28 08:27:17 51°11.309 2°36.513 36.2 11.7 32 10.4
2006-04-28 08:27:22 51°11.323 2°36.527 36.2 11.7 32 10.3
2006-04-28 08:27:27 51°11.337 2°36.54 35.7 11.7 31 10.4
2006-04-28 08:27:33 51°11.354 2°36.556 35.3 11.7 31 10.5
2006-04-28 08:27:37 51°11.365 2°36.566 34.7 11.7 30 10.5
2006-04-28 08:27:42 51°11.379 2°36.579 34.6 11.7 30 10.4
2006-04-28 08:27:47 51°11.393 2°36.593 34.2 11.7 30 10.2
2006-04-28 08:27:52 51°11.407 2°36.605 34.3 11.6 30 10.4
2006-04-28 08:27:58 51°11.423 2°36.621 34.4 11.7 31 10.4
2006-04-28 08:28:02 51°11.435 2°36.632 34.7 11.7 31 10.5
2006-04-28 08:28:07 51°11.448 2°36.645 35 11.7 32 10.3
2006-04-28 08:28:12 51°11.462 2°36.659 35.4 11.7 32 10.5
2006-04-28 08:28:17 51°11.475 2°36.673 36 11.7 33 10.4
2006-04-28 08:28:21 51°11.486 2°36.684 36.2 11.7 32 10.2
2006-04-28 08:28:27 51°11.502 2°36.701 36.5 11.6 33 10.5
2006-04-28 08:28:32 51°11.516 2°36.714 36.6 11.7 32 10.5
2006-04-28 08:28:37 51°11.529 2°36.729 36.4 11.7 32 10.3
2006-04-28 08:28:42 51°11.543 2°36.742 35.8 11.6 31 10.4
2006-04-28 08:28:47 51°11.556 2°36.755 35.5 11.7 31 10.4
2006-04-28 08:28:52 51°11.57 2°36.768 35 11.7 31 10.5
2006-04-28 08:28:57 51°11.585 2°36.781 34.3 11.6 30 10.3
2006-04-28 08:29:01 51°11.596 2°36.791 34 11.7 30 10.4
2006-04-28 08:29:07 51°11.613 2°36.806 33.5 11.7 29 10.4
2006-04-28 08:29:12 51°11.627 2°36.819 33.6 11.7 30 10.2
2006-04-28 08:29:16 51°11.638 2°36.83 34.1 11.7 31 10.3
2006-04-28 08:29:22 51°11.654 2°36.846 34.7 11.7 31 10.5
2006-04-28 08:29:27 51°11.668 2°36.86 35.6 11.6 33 10.5
2006-04-28 08:29:33 51°11.684 2°36.877 36.4 11.7 33 10.4
2006-04-28 08:29:38 51°11.698 2°36.891 36.6 11.7 33 10.4
2006-04-28 08:29:42 51°11.708 2°36.902 37 11.7 33 10.4
2006-04-28 08:29:47 51°11.722 2°36.917 36.9 11.6 33 10.6
2006-04-28 08:29:52 51°11.736 2°36.93 36.4 11.7 32 10.4
2006-04-28 08:29:58 51°11.752 2°36.945 35.7 11.6 31 10.4
2006-04-28 08:30:02 51°11.763 2°36.956 34.6 11.6 30 10.3
2006-04-28 08:30:07 51°11.778 2°36.968 33.8 11.7 29 10.3
2006-04-28 08:30:12 51°11.793 2°36.979 32.6 11.7 27 10.4
2006-04-28 08:30:17 51°11.807 2°36.99 31.7 11.7 27 10.4
2006-04-28 08:30:22 51°11.822 2°37.002 31.2 11.7 26 10.4
2006-04-28 08:30:27 51°11.836 2°37.014 31.1 11.7 27 10.3
2006-04-28 08:30:32 51°11.85 2°37.026 31.3 11.7 28 10.3
2006-04-28 08:30:36 51°11.862 2°37.036 32.4 11.6 29 10.3
2006-04-28 08:30:42 51°11.879 2°37.051 33.3 11.6 29 10.2
2006-04-28 08:30:46 51°11.89 2°37.061 33.9 11.6 30 10.3
2006-04-28 08:30:52 51°11.906 2°37.077 34.2 11.6 30 10.2
2006-04-28 08:30:55 51°11.915 2°37.085 34.4 11.6 30 10.2
2006-04-28 08:31:02 51°11.934 2°37.102 34.4 11.6 30 10.2
2006-04-28 08:31:07 51°11.949 2°37.115 34 11.6 29 10.2
2006-04-28 08:31:12 51°11.963 2°37.127 33.5 11.6 29 10.3
2006-04-28 08:31:17 51°11.977 2°37.139 33.4 11.6 29 10.2
2006-04-28 08:31:22 51°11.991 2°37.151 33.1 11.7 28 10.2
2006-04-28 08:31:27 51°12.006 2°37.163 32.2 11.7 27 10.3
2006-04-28 08:31:32 51°12.02 2°37.175 31.8 11.7 27 10.3
2006-04-28 08:31:37 51°12.035 2°37.187 31.8 11.6 28 10.2
2006-04-28 08:31:42 51°12.049 2°37.199 32.2 11.6 28 10.1
2006-04-28 08:31:47 51°12.063 2°37.211 32.6 11.7 28 10.2
2006-04-28 08:31:52 51°12.077 2°37.224 33 11.7 29 10.4
2006-04-28 08:31:57 51°12.091 2°37.237 33.7 11.6 30 10.3
2006-04-28 08:32:01 51°12.103 2°37.247 34.3 11.6 31 10.1
2006-04-28 08:32:06 51°12.117 2°37.26 34.8 11.6 31 10.4
2006-04-28 08:32:12 51°12.133 2°37.276 35 11.6 31 10.3
2006-04-28 08:32:17 51°12.147 2°37.289 35 11.6 31 10.3
2006-04-28 08:32:22 51°12.161 2°37.302 35 11.6 30 10.3
2006-04-28 08:32:27 51°12.175 2°37.315 34.9 11.6 30 10.3
2006-04-28 08:32:31 51°12.186 2°37.325 34.6 11.6 30 10.4
2006-04-28 08:32:37 51°12.203 2°37.34 34.1 11.6 29 10.3
2006-04-28 08:32:41 51°12.215 2°37.349 33.4 11.6 28 10.3
2006-04-28 08:32:48 51°12.235 2°37.366 33.1 11.6 28 10.5
2006-04-28 08:32:52 51°12.246 2°37.376 32.7 11.6 28 10.3
2006-04-28 08:32:58 51°12.263 2°37.39 32.5 11.7 27 10.3
2006-04-28 08:33:02 51°12.275 2°37.399 32 11.7 27 10.3
2006-04-28 08:33:05 51°12.284 2°37.406 31.7 11.7 27 10.5
2006-04-28 08:33:11 51°12.301 2°37.42 31.6 11.6 27 10.5
2006-04-28 08:33:17 51°12.318 2°37.435 32.1 11.6 28 10.7
2006-04-28 08:33:21 51°12.329 2°37.445 33 11.6 29 10.5
2006-04-28 08:33:27 51°12.346 2°37.46 33.9 11.6 30 10.6
2006-04-28 08:33:31 51°12.357 2°37.471 34.1 11.6 30 10.6
2006-04-28 08:33:37 51°12.374 2°37.486 34.3 11.7 30 10.7
2006-04-28 08:33:41 51°12.385 2°37.496 34.5 11.7 30 10.6
2006-04-28 08:33:47 51°12.402 2°37.511 34.6 11.6 30 10.5
2006-04-28 08:33:51 51°12.413 2°37.521 34.4 11.6 29 10.8
2006-04-28 08:33:56 51°12.427 2°37.534 34.1 11.7 29 10.8
2006-04-28 08:34:02 51°12.444 2°37.548 33.7 11.7 28 10.7
2006-04-28 08:34:07 51°12.459 2°37.561 33.1 11.7 28 10.6
2006-04-28 08:34:12 51°12.473 2°37.573 32.9 11.7 28 10.9
2006-04-28 08:34:17 51°12.487 2°37.585 32.8 11.7 28 10.7
2006-04-28 08:34:21 51°12.499 2°37.594 32.6 11.6 28 10.9
2006-04-28 08:34:27 51°12.516 2°37.609 33 11.7 29 10.9
2006-04-28 08:34:32 51°12.53 2°37.622 33.3 11.7 29 10.8
2006-04-28 08:34:37 51°12.544 2°37.634 33.6 11.6 29 10.9
2006-04-28 08:34:41 51°12.555 2°37.644 33.9 11.7 29 11
2006-04-28 08:34:47 51°12.573 2°37.659 33.7 11.7 29 11
2006-04-28 08:34:51 51°12.584 2°37.669 33.6 11.7 28 11
2006-04-28 08:34:57 51°12.601 2°37.683 33.3 11.7 28 11
2006-04-28 08:35:01 51°12.612 2°37.693 33.3 11.6 28 11
2006-04-28 08:35:06 51°12.627 2°37.705 33 11.6 27 11.2
2006-04-28 08:35:11 51°12.641 2°37.717 32.7 11.6 28 11.3
2006-04-28 08:35:17 51°12.658 2°37.731 32.6 11.7 27 11.4
2006-04-28 08:35:22 51°12.672 2°37.743 32.5 11.6 27 11.4
2006-04-28 08:35:27 51°12.687 2°37.755 32.6 11.7 28 11.4
2006-04-28 08:35:32 51°12.701 2°37.767 33 11.7 28 11.4
2006-04-28 08:35:37 51°12.715 2°37.78 33.5 11.7 29 11.4
2006-04-28 08:35:42 51°12.729 2°37.792 34 11.7 30 11.6
2006-04-28 08:35:47 51°12.743 2°37.806 34.2 11.7 30 11.6
2006-04-28 08:35:52 51°12.757 2°37.818 34.4 11.7 30 11.4
2006-04-28 08:35:57 51°12.771 2°37.831 34.4 11.7 29 11.4
2006-04-28 08:36:02 51°12.786 2°37.843 34 11.7 28 11.5
2006-04-28 08:36:06 51°12.797 2°37.853 33.3 11.6 28 11.6
2006-04-28 08:36:11 51°12.811 2°37.865 32.9 11.7 27 11.7
2006-04-28 08:36:17 51°12.828 2°37.879 32.5 11.7 27 11.8
2006-04-28 08:36:21 51°12.84 2°37.888 32.5 11.7 28 11.9
2006-04-28 08:36:27 51°12.857 2°37.903 32.8 11.7 28 12
2006-04-28 08:36:31 51°12.868 2°37.913 33.2 11.6 29 11.9
2006-04-28 08:36:37 51°12.885 2°37.928 33.9 11.7 29 12
2006-04-28 08:36:41 51°12.897 2°37.938 33.9 11.7 29 12
2006-04-28 08:36:47 51°12.914 2°37.953 33.9 11.7 29 12.1
2006-04-28 08:36:52 51°12.928 2°37.965 33.9 11.7 28 12.1
2006-04-28 08:36:57 51°12.942 2°37.977 33.4 11.7 28 12.2
2006-04-28 08:37:01 51°12.954 2°37.987 32.8 11.7 28 12.2
2006-04-28 08:37:06 51°12.968 2°37.998 32.6 11.7 27 12.2
2006-04-28 08:37:11 51°12.983 2°38.01 32.1 11.7 27 12.3
2006-04-28 08:37:18 51°13.003 2°38.026 31.7 11.7 27 12.3
2006-04-28 08:37:22 51°13.015 2°38.036 31.6 11.8 27 12.4
2006-04-28 08:37:26 51°13.026 2°38.045 31.8 11.8 27 12.3
2006-04-28 08:37:32 51°13.044 2°38.059 32 11.8 28 12.5
2006-04-28 08:37:35 51°13.052 2°38.067 32.6 11.7 29 12.4
2006-04-28 08:37:42 51°13.073 2°38.085 33.4 11.7 29 12.5
2006-04-28 08:37:47 51°13.087 2°38.097 34.1 11.8 30 12.6
2006-04-28 08:37:52 51°13.101 2°38.11 34.1 11.8 30 12.6
2006-04-28 08:37:57 51°13.116 2°38.123 34.3 11.7 30 12.6
2006-04-28 08:38:01 51°13.127 2°38.133 34.3 11.8 30 12.6
2006-04-28 08:38:07 51°13.144 2°38.149 34.4 11.8 30 12.7